Time,TemperatureF,DewpointF,PressureIn,WindDirection,WindDirectionDegrees,WindSpeedMPH,WindSpeedGustMPH,Humidity,HourlyPrecipIn,Conditions,Clouds,dailyrainin,SoftwareType,DateUTC
2013-10-19 00:00:00,42.5,37.7,29.70,SSE,165,0.0,5.0,83,0.00,,SKC,0.00,VWS V14.01,2013-10-19 05:00:00,
2013-10-19 00:03:00,42.4,37.6,29.70,SSE,165,5.0,5.0,83,0.00,,SKC,0.00,VWS V14.01,2013-10-19 05:03:00,
2013-10-19 00:08:00,42.5,37.7,29.70,SSE,166,0.0,5.0,83,0.00,,SKC,0.00,VWS V14.01,2013-10-19 05:08:00,
2013-10-19 00:13:00,42.6,37.8,29.69,SSE,166,0.0,5.0,83,0.00,,SKC,0.00,VWS V14.01,2013-10-19 05:13:00,
2013-10-19 00:18:00,42.7,37.9,29.69,SSE,166,0.0,6.0,83,0.00,,SKC,0.00,VWS V14.01,2013-10-19 05:18:00,
2013-10-19 00:23:00,42.7,37.6,29.69,South,173,0.0,9.0,82,0.00,,SKC,0.00,VWS V14.01,2013-10-19 05:23:00,
2013-10-19 00:28:00,42.7,37.6,29.69,South,178,0.0,9.0,82,0.00,,SKC,0.00,VWS V14.01,2013-10-19 05:28:00,
2013-10-19 00:30:00,42.4,37.6,29.72,SSE,165,2.0,7.0,83,0.00,,SKC,0.17,VWS V14.01,2013-10-19 05:30:00,
2013-10-19 00:33:00,42.5,37.4,29.69,SSW,207,2.0,7.0,82,0.00,,SKC,0.00,VWS V14.01,2013-10-19 05:33:00,
2013-10-19 00:38:00,42.4,37.6,29.68,SSW,205,6.0,9.0,83,0.00,,SKC,0.00,VWS V14.01,2013-10-19 05:38:00,
2013-10-19 00:43:00,42.4,37.6,29.68,SSW,205,5.0,9.0,83,0.00,,SKC,0.00,VWS V14.01,2013-10-19 05:43:00,
2013-10-19 00:49:00,42.2,37.4,29.68,SSW,205,1.0,9.0,83,0.00,,SKC,0.00,VWS V14.01,2013-10-19 05:49:00,
2013-10-19 00:54:00,42.0,37.5,29.68,SSW,205,2.0,9.0,84,0.00,,SKC,0.00,VWS V14.01,2013-10-19 05:54:00,
2013-10-19 00:59:00,41.8,37.3,29.68,SSW,209,0.0,9.0,84,0.00,,SKC,0.00,VWS V14.01,2013-10-19 05:59:00,
2013-10-19 01:00:00,42.5,37.7,29.70,SSE,165,0.0,5.0,83,0.00,,SKC,0.00,VWS V14.01,2013-10-19 06:00:00,
2013-10-19 01:04:00,41.7,37.5,29.68,SSW,209,0.0,1.0,85,0.00,,SKC,0.00,VWS V14.01,2013-10-19 06:04:00,
2013-10-19 01:09:00,41.6,37.7,29.68,SSW,209,2.0,3.0,86,0.00,,SKC,0.00,VWS V14.01,2013-10-19 06:09:00,
2013-10-19 01:14:00,41.4,37.5,29.68,SSW,209,0.0,3.0,86,0.00,,SKC,0.00,VWS V14.01,2013-10-19 06:14:00,
2013-10-19 01:19:00,41.3,37.4,29.68,SSW,210,2.0,8.0,86,0.00,,SKC,0.00,VWS V14.01,2013-10-19 06:19:00,
2013-10-19 01:24:00,41.2,37.3,29.68,SSW,210,0.0,8.0,86,0.00,,SKC,0.00,VWS V14.01,2013-10-19 06:24:00,
2013-10-19 01:29:00,41.1,37.2,29.67,SSW,210,0.0,8.0,86,0.00,,SKC,0.00,VWS V14.01,2013-10-19 06:29:00,
2013-10-19 01:30:00,42.6,37.5,29.69,SSW,207,4.0,12.0,82,0.00,,SKC,0.00,VWS V14.01,2013-10-19 06:30:00,
2013-10-19 01:34:00,41.0,37.1,29.67,SSW,210,0.0,2.0,86,0.00,,SKC,0.00,VWS V14.01,2013-10-19 06:34:00,
2013-10-19 01:39:00,41.0,37.4,29.67,SSW,210,0.0,4.0,87,0.00,,SKC,0.00,VWS V14.01,2013-10-19 06:39:00,
2013-10-19 01:44:00,40.9,37.3,29.67,SSW,210,1.0,5.0,87,0.00,,SKC,0.00,VWS V14.01,2013-10-19 06:44:00,
2013-10-19 01:49:00,40.7,37.4,29.67,SSW,210,1.0,5.0,88,0.00,,SKC,0.00,VWS V14.01,2013-10-19 06:49:00,
2013-10-19 01:54:00,40.6,37.3,29.67,SSW,210,0.0,5.0,88,0.00,,SKC,0.00,VWS V14.01,2013-10-19 06:54:00,
2013-10-19 01:59:00,40.4,37.4,29.66,SSW,210,0.0,5.0,89,0.00,,SKC,0.00,VWS V14.01,2013-10-19 06:59:00,
2013-10-19 02:00:00,41.8,37.6,29.68,SSW,209,0.0,9.0,85,0.00,,SKC,0.00,VWS V14.01,2013-10-19 07:00:00,
2013-10-19 02:04:00,40.3,37.3,29.66,SSW,210,0.0,1.0,89,0.00,,SKC,0.00,VWS V14.01,2013-10-19 07:04:00,
2013-10-19 02:09:00,40.2,37.2,29.67,SSW,210,0.0,7.0,89,0.00,,SKC,0.00,VWS V14.01,2013-10-19 07:09:00,
2013-10-19 02:14:00,40.1,37.1,29.67,SSW,210,0.0,7.0,89,0.00,,SKC,0.00,VWS V14.01,2013-10-19 07:14:00,
2013-10-19 02:19:00,40.1,37.4,29.66,SSW,210,1.0,7.0,90,0.00,,SKC,0.00,VWS V14.01,2013-10-19 07:19:00,
2013-10-19 02:24:00,40.0,37.3,29.67,SSW,210,0.0,7.0,90,0.00,,SKC,0.00,VWS V14.01,2013-10-19 07:24:00,
2013-10-19 02:29:00,39.8,37.1,29.66,SSW,210,0.0,7.0,90,0.00,,SKC,0.00,VWS V14.01,2013-10-19 07:29:00,
2013-10-19 02:30:00,41.1,37.2,29.67,SSW,210,0.0,8.0,86,0.00,,SKC,0.00,VWS V14.01,2013-10-19 07:30:00,
2013-10-19 02:34:00,39.6,36.9,29.66,SSW,211,2.0,7.0,90,0.00,,SKC,0.00,VWS V14.01,2013-10-19 07:34:00,
2013-10-19 02:39:00,39.5,36.8,29.66,SSW,211,2.0,7.0,90,0.00,,SKC,0.00,VWS V14.01,2013-10-19 07:39:00,
2013-10-19 02:45:00,39.3,36.9,29.66,SSW,211,0.0,7.0,91,0.00,,SKC,0.00,VWS V14.01,2013-10-19 07:45:00,
2013-10-19 02:50:00,39.2,36.8,29.66,SSW,211,1.0,7.0,91,0.00,,SKC,0.00,VWS V14.01,2013-10-19 07:50:00,
2013-10-19 02:55:00,39.0,36.6,29.65,SSW,211,1.0,7.0,91,0.00,,SKC,0.00,VWS V14.01,2013-10-19 07:55:00,
2013-10-19 03:00:00,38.9,36.5,29.65,SSW,211,0.0,7.0,91,0.00,,SKC,0.00,VWS V14.01,2013-10-19 08:00:00,
2013-10-19 03:05:00,38.7,36.3,29.65,SSW,211,0.0,0.0,91,0.00,,SKC,0.00,VWS V14.01,2013-10-19 08:05:00,
2013-10-19 03:10:00,38.6,36.5,29.65,SW,214,0.0,8.0,92,0.00,,SKC,0.00,VWS V14.01,2013-10-19 08:10:00,
2013-10-19 03:15:00,38.5,36.4,29.64,SW,214,0.0,8.0,92,0.00,,SKC,0.00,VWS V14.01,2013-10-19 08:15:00,
2013-10-19 03:20:00,38.5,36.4,29.64,SW,215,0.0,8.0,92,0.00,,SKC,0.00,VWS V14.01,2013-10-19 08:20:00,
2013-10-19 03:25:00,38.4,36.3,29.64,SW,215,2.0,8.0,92,0.00,,SKC,0.00,VWS V14.01,2013-10-19 08:25:00,
2013-10-19 03:30:00,38.4,36.3,29.64,SW,215,0.0,8.0,92,0.00,,SKC,0.00,VWS V14.01,2013-10-19 08:30:00,
2013-10-19 03:35:00,38.4,36.6,29.64,SW,215,0.0,1.0,93,0.00,,SKC,0.00,VWS V14.01,2013-10-19 08:35:00,
2013-10-19 03:40:00,38.4,36.6,29.63,SW,216,1.0,6.0,93,0.00,,SKC,0.00,VWS V14.01,2013-10-19 08:40:00,
2013-10-19 03:45:00,38.3,36.5,29.63,SW,216,0.0,6.0,93,0.00,,SKC,0.00,VWS V14.01,2013-10-19 08:45:00,
2013-10-19 03:50:00,38.3,36.5,29.63,SW,216,0.0,6.0,93,0.00,,SKC,0.00,VWS V14.01,2013-10-19 08:50:00,
2013-10-19 03:55:00,38.3,36.5,29.63,SW,216,0.0,6.0,93,0.00,,SKC,0.00,VWS V14.01,2013-10-19 08:55:00,
2013-10-19 04:00:00,38.2,36.4,29.63,SW,216,0.0,6.0,93,0.00,,SKC,0.00,VWS V14.01,2013-10-19 09:00:00,
2013-10-19 04:05:00,38.2,36.4,29.63,SW,215,2.0,4.0,93,0.00,,SKC,0.00,VWS V14.01,2013-10-19 09:05:00,
2013-10-19 04:10:00,38.1,36.3,29.63,SW,216,0.0,4.0,93,0.00,,SKC,0.00,VWS V14.01,2013-10-19 09:10:00,
2013-10-19 04:15:00,38.1,36.3,29.63,SW,216,0.0,4.0,93,0.00,,SKC,0.00,VWS V14.01,2013-10-19 09:15:00,
2013-10-19 04:20:00,38.1,36.3,29.63,SW,215,0.0,4.0,93,0.00,,SKC,0.00,VWS V14.01,2013-10-19 09:20:00,
2013-10-19 04:25:00,38.1,36.3,29.62,SW,216,0.0,4.0,93,0.00,,SKC,0.00,VWS V14.01,2013-10-19 09:25:00,
2013-10-19 04:30:00,38.2,36.4,29.62,SW,216,0.0,4.0,93,0.00,,SKC,0.00,VWS V14.01,2013-10-19 09:30:00,
2013-10-19 04:35:00,38.3,36.5,29.62,SW,216,0.0,2.0,93,0.00,,SKC,0.00,VWS V14.01,2013-10-19 09:35:00,
2013-10-19 04:40:00,38.2,36.4,29.62,SW,215,1.0,6.0,93,0.00,,SKC,0.00,VWS V14.01,2013-10-19 09:40:00,
2013-10-19 04:45:00,38.2,36.4,29.62,SW,215,0.0,6.0,93,0.00,,SKC,0.00,VWS V14.01,2013-10-19 09:45:00,
2013-10-19 04:50:00,38.2,36.4,29.61,SW,215,0.0,6.0,93,0.00,,SKC,0.00,VWS V14.01,2013-10-19 09:50:00,
2013-10-19 04:55:00,38.2,36.4,29.61,SW,215,0.0,6.0,93,0.00,,SKC,0.00,VWS V14.01,2013-10-19 09:55:00,
2013-10-19 05:00:00,38.2,36.4,29.61,SW,215,0.0,6.0,93,0.00,,SKC,0.00,VWS V14.01,2013-10-19 10:00:00,
2013-10-19 05:05:00,38.2,36.4,29.61,SW,215,0.0,5.0,93,0.00,,SKC,0.00,VWS V14.01,2013-10-19 10:05:00,
2013-10-19 05:10:00,38.1,36.3,29.61,SW,215,0.0,5.0,93,0.00,,SKC,0.00,VWS V14.01,2013-10-19 10:10:00,
2013-10-19 05:16:00,38.2,36.4,29.61,SW,215,0.0,5.0,93,0.00,,SKC,0.00,VWS V14.01,2013-10-19 10:16:00,
2013-10-19 05:21:00,38.1,36.3,29.61,SW,215,1.0,5.0,93,0.00,,SKC,0.00,VWS V14.01,2013-10-19 10:21:00,
2013-10-19 05:26:00,38.2,36.6,29.60,SW,215,0.0,5.0,94,0.00,,SKC,0.00,VWS V14.01,2013-10-19 10:26:00,
2013-10-19 05:30:00,38.2,36.4,29.62,SW,216,2.0,4.0,93,0.00,,SKC,0.00,VWS V14.01,2013-10-19 10:30:00,
2013-10-19 05:31:00,38.2,36.6,29.60,SW,215,0.0,5.0,94,0.00,,SKC,0.00,VWS V14.01,2013-10-19 10:31:00,
2013-10-19 05:36:00,38.2,36.6,29.61,SW,215,4.0,7.0,94,0.00,,SKC,0.00,VWS V14.01,2013-10-19 10:36:00,
2013-10-19 05:41:00,37.9,36.3,29.60,SW,215,3.0,7.0,94,0.01,,SKC,0.01,VWS V14.01,2013-10-19 10:41:00,
2013-10-19 05:46:00,37.8,36.2,29.60,SW,216,0.0,7.0,94,0.01,,SKC,0.01,VWS V14.01,2013-10-19 10:46:00,
2013-10-19 05:51:00,37.7,36.1,29.60,SW,216,0.0,7.0,94,0.01,,SKC,0.01,VWS V14.01,2013-10-19 10:51:00,
2013-10-19 05:56:00,37.7,36.1,29.60,SW,216,0.0,7.0,94,0.01,,SKC,0.01,VWS V14.01,2013-10-19 10:56:00,
2013-10-19 06:00:00,38.2,36.4,29.61,SW,215,0.0,6.0,93,0.00,,SKC,0.00,VWS V14.01,2013-10-19 11:00:00,
2013-10-19 06:01:00,37.8,36.2,29.60,SW,216,0.0,7.0,94,0.01,,SKC,0.01,VWS V14.01,2013-10-19 11:01:00,
2013-10-19 06:06:00,37.8,36.2,29.60,SW,216,0.0,2.0,94,0.01,,SKC,0.01,VWS V14.01,2013-10-19 11:06:00,
2013-10-19 06:11:00,37.9,36.3,29.60,SW,216,1.0,5.0,94,0.01,,SKC,0.01,VWS V14.01,2013-10-19 11:11:00,
2013-10-19 06:16:00,37.9,36.3,29.60,SW,216,0.0,5.0,94,0.02,,SKC,0.02,VWS V14.01,2013-10-19 11:16:00,
2013-10-19 06:21:00,37.9,36.3,29.59,SW,216,1.0,5.0,94,0.02,,SKC,0.02,VWS V14.01,2013-10-19 11:21:00,
2013-10-19 06:26:00,37.9,36.3,29.59,SW,216,0.0,5.0,94,0.02,,SKC,0.02,VWS V14.01,2013-10-19 11:26:00,
2013-10-19 06:30:00,38.2,36.6,29.60,SW,215,0.0,5.0,94,0.00,,SKC,0.00,VWS V14.01,2013-10-19 11:30:00,
2013-10-19 06:31:00,38.0,36.4,29.59,SW,216,0.0,0.0,94,0.02,,SKC,0.02,VWS V14.01,2013-10-19 11:31:00,
2013-10-19 06:36:00,38.0,36.4,29.59,SW,216,0.0,2.0,94,0.02,,SKC,0.02,VWS V14.01,2013-10-19 11:36:00,
2013-10-19 06:41:00,38.0,36.4,29.59,SW,216,2.0,4.0,94,0.02,,SKC,0.02,VWS V14.01,2013-10-19 11:41:00,
2013-10-19 06:46:00,37.9,36.3,29.59,SW,215,0.0,4.0,94,0.02,,SKC,0.02,VWS V14.01,2013-10-19 11:46:00,
2013-10-19 06:51:00,37.9,36.3,29.59,SW,216,0.0,4.0,94,0.02,,SKC,0.02,VWS V14.01,2013-10-19 11:51:00,
2013-10-19 06:56:00,37.9,36.3,29.59,SW,216,0.0,4.0,94,0.02,,SKC,0.02,VWS V14.01,2013-10-19 11:56:00,
2013-10-19 07:00:00,37.8,36.2,29.60,SW,216,0.0,7.0,94,0.01,,SKC,0.01,VWS V14.01,2013-10-19 12:00:00,
2013-10-19 07:01:00,37.9,36.3,29.59,SW,216,0.0,0.0,94,0.02,,SKC,0.03,VWS V14.01,2013-10-19 12:01:00,
2013-10-19 07:06:00,37.9,36.6,29.59,SW,216,1.0,1.0,95,0.02,,SKC,0.03,VWS V14.01,2013-10-19 12:06:00,
2013-10-19 07:11:00,37.9,36.6,29.59,SW,216,0.0,4.0,95,0.02,,SKC,0.03,VWS V14.01,2013-10-19 12:11:00,
2013-10-19 07:16:00,37.9,36.6,29.59,SW,216,4.0,5.0,95,0.03,,SKC,0.04,VWS V14.01,2013-10-19 12:16:00,
2013-10-19 07:21:00,37.8,36.5,29.59,SW,216,4.0,7.0,95,0.03,,SKC,0.04,VWS V14.01,2013-10-19 12:21:00,
2013-10-19 07:26:00,37.6,36.3,29.59,SW,216,6.0,7.0,95,0.03,,SKC,0.04,VWS V14.01,2013-10-19 12:26:00,
2013-10-19 07:30:00,37.9,36.3,29.59,SW,216,0.0,5.0,94,0.02,,SKC,0.02,VWS V14.01,2013-10-19 12:30:00,
2013-10-19 07:31:00,37.7,36.4,29.59,SW,216,4.0,4.0,95,0.02,,SKC,0.04,VWS V14.01,2013-10-19 12:31:00,
2013-10-19 07:37:00,37.7,36.4,29.59,SW,216,5.0,6.0,95,0.02,,SKC,0.04,VWS V14.01,2013-10-19 12:37:00,
2013-10-19 07:42:00,37.7,36.4,29.59,SW,216,0.0,6.0,95,0.02,,SKC,0.04,VWS V14.01,2013-10-19 12:42:00,
2013-10-19 07:47:00,37.7,36.4,29.59,SW,216,0.0,6.0,95,0.02,,SKC,0.04,VWS V14.01,2013-10-19 12:47:00,
2013-10-19 07:52:00,37.7,36.4,29.59,SW,216,2.0,6.0,95,0.02,,SKC,0.04,VWS V14.01,2013-10-19 12:52:00,
2013-10-19 07:57:00,37.7,36.4,29.59,SW,215,4.0,8.0,95,0.03,,SKC,0.05,VWS V14.01,2013-10-19 12:57:00,
2013-10-19 08:00:00,37.9,36.3,29.59,SW,216,0.0,4.0,94,0.03,,SKC,0.03,VWS V14.01,2013-10-19 13:00:00,
2013-10-19 08:02:00,37.6,36.3,29.59,SW,229,0.0,0.0,95,0.03,,SKC,0.06,VWS V14.01,2013-10-19 13:02:00,
2013-10-19 08:07:00,37.5,36.2,29.59,SW,229,4.0,4.0,95,0.03,,SKC,0.06,VWS V14.01,2013-10-19 13:07:00,
2013-10-19 08:12:00,37.3,36.0,29.59,SW,229,0.0,5.0,95,0.04,,SKC,0.07,VWS V14.01,2013-10-19 13:12:00,
2013-10-19 08:17:00,37.3,36.0,29.59,SW,229,0.0,5.0,95,0.05,,SKC,0.08,VWS V14.01,2013-10-19 13:17:00,
2013-10-19 08:22:00,37.3,36.0,29.58,SW,229,0.0,5.0,95,0.05,,SKC,0.08,VWS V14.01,2013-10-19 13:22:00,
2013-10-19 08:27:00,37.4,36.1,29.59,SW,229,0.0,6.0,95,0.05,,SKC,0.08,VWS V14.01,2013-10-19 13:27:00,
2013-10-19 08:30:00,37.7,36.4,29.59,SW,216,1.0,7.0,95,0.03,,SKC,0.04,VWS V14.01,2013-10-19 13:30:00,
2013-10-19 08:32:00,37.5,36.2,29.58,SW,229,0.0,0.0,95,0.04,,SKC,0.08,VWS V14.01,2013-10-19 13:32:00,
2013-10-19 08:37:00,37.5,36.2,29.58,SW,229,1.0,5.0,95,0.04,,SKC,0.08,VWS V14.01,2013-10-19 13:37:00,
2013-10-19 08:42:00,37.7,36.4,29.58,SW,229,0.0,5.0,95,0.04,,SKC,0.08,VWS V14.01,2013-10-19 13:42:00,
2013-10-19 08:48:00,37.9,36.6,29.58,SW,229,1.0,5.0,95,0.04,,SKC,0.08,VWS V14.01,2013-10-19 13:48:00,
2013-10-19 08:53:00,37.9,36.6,29.58,SW,229,0.0,5.0,95,0.04,,SKC,0.08,VWS V14.01,2013-10-19 13:53:00,
2013-10-19 08:58:00,37.9,36.6,29.58,SW,229,0.0,5.0,95,0.04,,SKC,0.08,VWS V14.01,2013-10-19 13:58:00,
2013-10-19 09:00:00,37.6,36.3,29.59,SW,229,0.0,9.0,95,0.03,,SKC,0.05,VWS V14.01,2013-10-19 14:00:00,
2013-10-19 09:03:00,37.9,36.6,29.58,SW,229,0.0,1.0,95,0.03,,SKC,0.08,VWS V14.01,2013-10-19 14:03:00,
2013-10-19 09:08:00,37.7,36.4,29.58,SW,230,0.0,5.0,95,0.03,,SKC,0.08,VWS V14.01,2013-10-19 14:08:00,
2013-10-19 09:13:00,37.6,36.3,29.58,SW,230,0.0,6.0,95,0.03,,SKC,0.08,VWS V14.01,2013-10-19 14:13:00,
2013-10-19 09:18:00,37.5,36.2,29.58,SW,230,1.0,6.0,95,0.03,,SKC,0.08,VWS V14.01,2013-10-19 14:18:00,
2013-10-19 09:23:00,37.5,36.2,29.58,SW,230,0.0,6.0,95,0.03,,SKC,0.08,VWS V14.01,2013-10-19 14:23:00,
2013-10-19 09:28:00,37.5,36.2,29.58,SW,230,0.0,6.0,95,0.03,,SKC,0.08,VWS V14.01,2013-10-19 14:28:00,
2013-10-19 09:30:00,37.4,36.1,29.59,SW,229,0.0,6.0,95,0.05,,SKC,0.08,VWS V14.01,2013-10-19 14:30:00,
2013-10-19 09:33:00,37.8,36.5,29.58,SW,230,0.0,2.0,95,0.00,,SKC,0.08,VWS V14.01,2013-10-19 14:33:00,
2013-10-19 09:38:00,37.8,36.5,29.58,SW,230,0.0,4.0,95,0.00,,SKC,0.08,VWS V14.01,2013-10-19 14:38:00,
2013-10-19 09:43:00,37.7,36.4,29.58,SW,230,0.0,4.0,95,0.00,,SKC,0.08,VWS V14.01,2013-10-19 14:43:00,
2013-10-19 09:48:00,37.8,36.5,29.59,SW,230,5.0,5.0,95,0.00,,SKC,0.08,VWS V14.01,2013-10-19 14:48:00,
2013-10-19 09:53:00,37.6,36.3,29.58,SW,230,0.0,5.0,95,0.00,,SKC,0.08,VWS V14.01,2013-10-19 14:53:00,
2013-10-19 09:58:00,37.6,36.3,29.58,SW,230,0.0,5.0,95,0.00,,SKC,0.08,VWS V14.01,2013-10-19 14:58:00,
2013-10-19 10:00:00,37.9,36.6,29.58,SW,229,1.0,5.0,95,0.04,,SKC,0.08,VWS V14.01,2013-10-19 15:00:00,
2013-10-19 10:03:00,37.8,36.5,29.58,SW,230,0.0,5.0,95,0.00,,SKC,0.08,VWS V14.01,2013-10-19 15:03:00,
2013-10-19 10:08:00,37.9,36.6,29.59,SW,230,1.0,5.0,95,0.00,,SKC,0.08,VWS V14.01,2013-10-19 15:08:00,
2013-10-19 10:13:00,37.9,36.6,29.58,SW,231,0.0,5.0,95,0.00,,SKC,0.08,VWS V14.01,2013-10-19 15:13:00,
2013-10-19 10:18:00,38.1,36.8,29.58,SW,231,0.0,5.0,95,0.00,,SKC,0.08,VWS V14.01,2013-10-19 15:18:00,
2013-10-19 10:24:00,38.4,37.1,29.58,SW,231,0.0,5.0,95,0.00,,SKC,0.08,VWS V14.01,2013-10-19 15:24:00,
2013-10-19 10:29:00,38.8,37.5,29.58,SW,231,0.0,6.0,95,0.00,,SKC,0.08,VWS V14.01,2013-10-19 15:29:00,
2013-10-19 10:30:00,37.6,36.3,29.58,SW,230,0.0,6.0,95,0.03,,SKC,0.08,VWS V14.01,2013-10-19 15:30:00,
2013-10-19 10:34:00,39.0,37.7,29.58,SW,231,0.0,4.0,95,0.00,,SKC,0.08,VWS V14.01,2013-10-19 15:34:00,
2013-10-19 10:39:00,39.3,38.0,29.58,SW,232,1.0,6.0,95,0.00,,SKC,0.08,VWS V14.01,2013-10-19 15:39:00,
2013-10-19 10:44:00,39.3,38.0,29.58,SW,232,1.0,6.0,95,0.00,,SKC,0.08,VWS V14.01,2013-10-19 15:44:00,
2013-10-19 10:49:00,39.1,37.8,29.58,SW,232,2.0,6.0,95,0.00,,SKC,0.08,VWS V14.01,2013-10-19 15:49:00,
2013-10-19 10:54:00,39.0,37.7,29.58,SW,234,1.0,7.0,95,0.00,,SKC,0.08,VWS V14.01,2013-10-19 15:54:00,
2013-10-19 10:59:00,39.2,37.9,29.58,SW,234,0.0,7.0,95,0.00,,SKC,0.08,VWS V14.01,2013-10-19 15:59:00,
2013-10-19 11:00:00,37.7,36.4,29.58,SW,230,5.0,5.0,95,0.00,,SKC,0.08,VWS V14.01,2013-10-19 16:00:00,
2013-10-19 11:04:00,39.4,38.1,29.58,SW,234,0.0,5.0,95,0.00,,SKC,0.08,VWS V14.01,2013-10-19 16:04:00,
2013-10-19 11:09:00,39.3,38.0,29.58,SW,234,0.0,5.0,95,0.00,,SKC,0.08,VWS V14.01,2013-10-19 16:09:00,
2013-10-19 11:14:00,39.2,37.9,29.58,SW,234,0.0,6.0,95,0.00,,SKC,0.08,VWS V14.01,2013-10-19 16:14:00,
2013-10-19 11:19:00,39.1,37.8,29.58,SW,234,0.0,6.0,95,0.00,,SKC,0.08,VWS V14.01,2013-10-19 16:19:00,
2013-10-19 11:24:00,39.3,38.0,29.58,SW,234,0.0,6.0,95,0.00,,SKC,0.08,VWS V14.01,2013-10-19 16:24:00,
2013-10-19 11:29:00,39.3,38.0,29.58,SW,234,2.0,6.0,95,0.00,,SKC,0.08,VWS V14.01,2013-10-19 16:29:00,
2013-10-19 11:30:00,38.9,37.6,29.58,SW,231,0.0,6.0,95,0.00,,SKC,0.08,VWS V14.01,2013-10-19 16:30:00,
2013-10-19 11:34:00,39.3,38.0,29.58,SW,234,2.0,4.0,95,0.00,,SKC,0.08,VWS V14.01,2013-10-19 16:34:00,
2013-10-19 11:39:00,39.3,38.0,29.58,SW,234,0.0,4.0,95,0.00,,SKC,0.08,VWS V14.01,2013-10-19 16:39:00,
2013-10-19 11:44:00,39.5,38.2,29.58,SW,234,0.0,4.0,95,0.00,,SKC,0.08,VWS V14.01,2013-10-19 16:44:00,
2013-10-19 11:49:00,39.6,38.3,29.58,SW,234,2.0,4.0,95,0.00,,SKC,0.08,VWS V14.01,2013-10-19 16:49:00,
2013-10-19 11:54:00,39.6,38.3,29.58,SW,234,0.0,4.0,95,0.00,,SKC,0.08,VWS V14.01,2013-10-19 16:54:00,
2013-10-19 12:00:00,39.6,38.3,29.58,SW,234,3.0,4.0,95,0.00,,SKC,0.08,VWS V14.01,2013-10-19 17:00:00,
2013-10-19 12:05:00,39.5,38.2,29.58,SW,234,0.0,5.0,95,0.00,,SKC,0.08,VWS V14.01,2013-10-19 17:05:00,
2013-10-19 12:10:00,39.5,38.2,29.58,SW,234,0.0,5.0,95,0.00,,SKC,0.08,VWS V14.01,2013-10-19 17:10:00,
2013-10-19 12:15:00,39.6,38.0,29.58,SW,234,0.0,5.0,94,0.00,,SKC,0.08,VWS V14.01,2013-10-19 17:15:00,
2013-10-19 12:20:00,39.5,37.9,29.58,NW,305,2.0,11.0,94,0.00,,SKC,0.08,VWS V14.01,2013-10-19 17:20:00,
2013-10-19 12:25:00,39.5,37.9,29.58,NW,306,0.0,11.0,94,0.00,,SKC,0.08,VWS V14.01,2013-10-19 17:25:00,
2013-10-19 12:30:00,39.5,37.9,29.58,NW,307,0.0,11.0,94,0.00,,SKC,0.08,VWS V14.01,2013-10-19 17:30:00,
2013-10-19 12:35:00,39.6,38.0,29.58,NW,307,0.0,2.0,94,0.00,,SKC,0.08,VWS V14.01,2013-10-19 17:35:00,
2013-10-19 12:40:00,39.7,38.1,29.58,NW,307,1.0,2.0,94,0.00,,SKC,0.08,VWS V14.01,2013-10-19 17:40:00,
2013-10-19 12:45:00,39.6,38.0,29.58,NW,307,0.0,2.0,94,0.01,,SKC,0.09,VWS V14.01,2013-10-19 17:45:00,
2013-10-19 12:50:00,39.5,37.7,29.58,NW,307,0.0,2.0,93,0.01,,SKC,0.09,VWS V14.01,2013-10-19 17:50:00,
2013-10-19 12:55:00,39.5,37.9,29.58,NW,307,0.0,2.0,94,0.01,,SKC,0.09,VWS V14.01,2013-10-19 17:55:00,
2013-10-19 13:00:00,39.7,38.1,29.58,NW,307,0.0,2.0,94,0.01,,SKC,0.09,VWS V14.01,2013-10-19 18:00:00,
2013-10-19 13:05:00,40.6,39.0,29.58,NW,307,0.0,1.0,94,0.01,,SKC,0.09,VWS V14.01,2013-10-19 18:05:00,
2013-10-19 13:10:00,41.9,40.6,29.57,NW,307,0.0,1.0,95,0.01,,SKC,0.09,VWS V14.01,2013-10-19 18:10:00,
2013-10-19 13:15:00,42.9,41.3,29.57,NW,307,0.0,1.0,94,0.01,,SKC,0.09,VWS V14.01,2013-10-19 18:15:00,
2013-10-19 13:20:00,43.4,41.5,29.57,NW,307,0.0,1.0,93,0.01,,SKC,0.09,VWS V14.01,2013-10-19 18:20:00,
2013-10-19 13:26:00,43.8,41.3,29.57,NW,307,2.0,4.0,91,0.01,,SKC,0.09,VWS V14.01,2013-10-19 18:26:00,
2013-10-19 13:30:00,39.5,37.9,29.58,NW,307,0.0,11.0,94,0.00,,SKC,0.08,VWS V14.01,2013-10-19 18:30:00,
2013-10-19 13:31:00,43.4,39.8,29.57,NW,307,0.0,5.0,87,0.01,,SKC,0.09,VWS V14.01,2013-10-19 18:31:00,
2013-10-19 13:36:00,43.3,40.0,29.57,NW,307,0.0,0.0,88,0.01,,SKC,0.09,VWS V14.01,2013-10-19 18:36:00,
2013-10-19 13:41:00,42.9,39.3,29.57,NW,307,0.0,4.0,87,0.01,,SKC,0.09,VWS V14.01,2013-10-19 18:41:00,
2013-10-19 13:46:00,42.7,39.4,29.57,NW,307,2.0,4.0,88,0.01,,SKC,0.09,VWS V14.01,2013-10-19 18:46:00,
2013-10-19 13:51:00,42.1,38.8,29.58,WNW,294,4.0,7.0,88,0.01,,SKC,0.09,VWS V14.01,2013-10-19 18:51:00,
2013-10-19 13:56:00,41.2,38.2,29.58,WNW,294,0.0,7.0,89,0.02,,SKC,0.10,VWS V14.01,2013-10-19 18:56:00,
2013-10-19 14:00:00,39.8,38.2,29.58,NW,307,0.0,2.0,94,0.01,,SKC,0.09,VWS V14.01,2013-10-19 19:00:00,
2013-10-19 14:01:00,40.2,37.5,29.58,WNW,293,2.0,7.0,90,0.02,,SKC,0.10,VWS V14.01,2013-10-19 19:01:00,
2013-10-19 14:06:00,39.4,37.0,29.58,WNW,293,0.0,3.0,91,0.01,,SKC,0.10,VWS V14.01,2013-10-19 19:06:00,
2013-10-19 14:11:00,38.9,36.8,29.58,WNW,293,0.0,5.0,92,0.02,,SKC,0.11,VWS V14.01,2013-10-19 19:11:00,
2013-10-19 14:16:00,39.1,37.2,29.58,WNW,293,0.0,5.0,93,0.02,,SKC,0.11,VWS V14.01,2013-10-19 19:16:00,
2013-10-19 14:21:00,39.3,37.5,29.58,WNW,293,0.0,5.0,93,0.02,,SKC,0.11,VWS V14.01,2013-10-19 19:21:00,
2013-10-19 14:26:00,39.9,38.3,29.58,WNW,293,0.0,5.0,94,0.02,,SKC,0.11,VWS V14.01,2013-10-19 19:26:00,
2013-10-19 14:30:00,43.4,39.8,29.57,NW,307,0.0,5.0,87,0.01,,SKC,0.09,VWS V14.01,2013-10-19 19:30:00,
2013-10-19 14:31:00,40.4,38.8,29.58,WNW,293,0.0,0.0,94,0.02,,SKC,0.11,VWS V14.01,2013-10-19 19:31:00,
2013-10-19 14:36:00,40.6,39.0,29.58,WNW,293,0.0,0.0,94,0.02,,SKC,0.11,VWS V14.01,2013-10-19 19:36:00,
2013-10-19 14:41:00,41.1,39.5,29.58,WNW,293,0.0,0.0,94,0.02,,SKC,0.11,VWS V14.01,2013-10-19 19:41:00,
2013-10-19 14:46:00,41.3,39.4,29.58,WNW,293,0.0,0.0,93,0.02,,SKC,0.11,VWS V14.01,2013-10-19 19:46:00,
2013-10-19 14:51:00,41.4,39.5,29.58,WNW,293,0.0,0.0,93,0.02,,SKC,0.11,VWS V14.01,2013-10-19 19:51:00,
2013-10-19 14:56:00,41.6,39.7,29.58,WNW,294,0.0,6.0,93,0.02,,SKC,0.11,VWS V14.01,2013-10-19 19:56:00,
2013-10-19 15:00:00,40.2,37.5,29.58,WNW,293,3.0,7.0,90,0.02,,SKC,0.10,VWS V14.01,2013-10-19 20:00:00,
2013-10-19 15:01:00,41.9,39.8,29.58,WNW,288,3.0,5.0,92,0.01,,SKC,0.11,VWS V14.01,2013-10-19 20:01:00,
2013-10-19 15:06:00,42.1,38.8,29.58,WNW,288,0.0,8.0,88,0.01,,SKC,0.11,VWS V14.01,2013-10-19 20:06:00,
2013-10-19 15:11:00,42.0,38.4,29.58,WNW,288,0.0,8.0,87,0.01,,SKC,0.11,VWS V14.01,2013-10-19 20:11:00,
2013-10-19 15:16:00,42.0,38.4,29.58,WNW,288,0.0,8.0,87,0.01,,SKC,0.11,VWS V14.01,2013-10-19 20:16:00,
2013-10-19 15:21:00,42.3,38.7,29.58,WNW,288,0.0,8.0,87,0.01,,SKC,0.11,VWS V14.01,2013-10-19 20:21:00,
2013-10-19 15:26:00,42.8,38.9,29.58,WNW,286,2.0,8.0,86,0.01,,SKC,0.11,VWS V14.01,2013-10-19 20:26:00,
2013-10-19 15:30:00,40.3,38.7,29.58,WNW,293,0.0,5.0,94,0.02,,SKC,0.11,VWS V14.01,2013-10-19 20:30:00,
2013-10-19 15:31:00,43.4,38.6,29.58,WNW,285,3.0,6.0,83,0.00,,SKC,0.11,VWS V14.01,2013-10-19 20:31:00,
2013-10-19 15:37:00,43.8,37.4,29.58,WNW,290,2.0,6.0,78,0.00,,SKC,0.11,VWS V14.01,2013-10-19 20:37:00,
2013-10-19 15:42:00,44.2,36.5,29.58,WNW,286,1.0,8.0,74,0.00,,SKC,0.11,VWS V14.01,2013-10-19 20:42:00,
2013-10-19 15:47:00,44.4,36.0,29.58,WNW,288,4.0,8.0,72,0.00,,SKC,0.11,VWS V14.01,2013-10-19 20:47:00,
2013-10-19 15:52:00,44.6,36.2,29.58,WNW,295,4.0,8.0,72,0.00,,SKC,0.11,VWS V14.01,2013-10-19 20:52:00,
2013-10-19 15:57:00,44.8,34.5,29.59,WNW,297,1.0,9.0,67,0.00,,SKC,0.11,VWS V14.01,2013-10-19 20:57:00,
2013-10-19 16:00:00,41.9,39.8,29.58,WNW,288,0.0,8.0,92,0.02,,SKC,0.11,VWS V14.01,2013-10-19 21:00:00,
2013-10-19 16:02:00,45.0,35.8,29.59,WNW,287,8.0,8.0,70,0.00,,SKC,0.11,VWS V14.01,2013-10-19 21:02:00,
2013-10-19 16:07:00,45.3,36.5,29.59,WNW,284,5.0,10.0,71,0.00,,SKC,0.11,VWS V14.01,2013-10-19 21:07:00,
2013-10-19 16:12:00,45.4,34.3,29.59,WNW,283,6.0,10.0,65,0.00,,SKC,0.11,VWS V14.01,2013-10-19 21:12:00,
2013-10-19 16:17:00,45.4,34.0,29.59,WNW,283,0.0,10.0,64,0.00,,SKC,0.11,VWS V14.01,2013-10-19 21:17:00,
2013-10-19 16:22:00,45.1,33.7,29.59,WNW,283,3.0,10.0,64,0.00,,SKC,0.11,VWS V14.01,2013-10-19 21:22:00,
2013-10-19 16:27:00,45.0,34.0,29.59,WNW,292,5.0,10.0,65,0.00,,SKC,0.11,VWS V14.01,2013-10-19 21:27:00,
2013-10-19 16:30:00,43.4,38.6,29.58,WNW,285,4.0,8.0,83,0.01,,SKC,0.11,VWS V14.01,2013-10-19 21:30:00,
2013-10-19 16:32:00,45.0,34.3,29.59,WNW,296,3.0,7.0,66,0.00,,SKC,0.11,VWS V14.01,2013-10-19 21:32:00,
2013-10-19 16:37:00,45.2,34.2,29.59,WNW,296,5.0,8.0,65,0.00,,SKC,0.11,VWS V14.01,2013-10-19 21:37:00,
2013-10-19 16:42:00,45.4,33.6,29.59,WNW,285,0.0,10.0,63,0.00,,SKC,0.11,VWS V14.01,2013-10-19 21:42:00,
2013-10-19 16:47:00,45.5,34.0,29.59,WNW,298,3.0,10.0,64,0.00,,SKC,0.11,VWS V14.01,2013-10-19 21:47:00,
2013-10-19 16:52:00,45.7,34.6,29.60,WNW,284,0.0,10.0,65,0.00,,SKC,0.11,VWS V14.01,2013-10-19 21:52:00,
2013-10-19 16:57:00,45.9,34.4,29.60,WNW,284,1.0,10.0,64,0.00,,SKC,0.11,VWS V14.01,2013-10-19 21:57:00,
2013-10-19 17:00:00,45.0,35.5,29.59,WNW,297,0.0,11.0,69,0.00,,SKC,0.11,VWS V14.01,2013-10-19 22:00:00,
2013-10-19 17:02:00,45.9,35.2,29.60,WNW,285,0.0,1.0,66,0.00,,SKC,0.11,VWS V14.01,2013-10-19 22:02:00,
2013-10-19 17:08:00,45.9,34.8,29.60,NW,311,2.0,8.0,65,0.00,,SKC,0.11,VWS V14.01,2013-10-19 22:08:00,
2013-10-19 17:13:00,45.9,34.8,29.60,NW,315,2.0,8.0,65,0.00,,SKC,0.11,VWS V14.01,2013-10-19 22:13:00,
2013-10-19 17:18:00,45.8,34.3,29.60,NW,315,0.0,8.0,64,0.00,,SKC,0.11,VWS V14.01,2013-10-19 22:18:00,
2013-10-19 17:23:00,45.6,34.1,29.61,NW,315,2.0,8.0,64,0.00,,SKC,0.11,VWS V14.01,2013-10-19 22:23:00,
2013-10-19 17:28:00,45.3,34.2,29.61,NW,315,0.0,8.0,65,0.00,,SKC,0.11,VWS V14.01,2013-10-19 22:28:00,
2013-10-19 17:30:00,45.0,34.0,29.59,WNW,298,4.0,10.0,65,0.00,,SKC,0.11,VWS V14.01,2013-10-19 22:30:00,
2013-10-19 17:33:00,45.0,34.0,29.61,NW,315,0.0,3.0,65,0.00,,SKC,0.11,VWS V14.01,2013-10-19 22:33:00,
2013-10-19 17:38:00,44.5,33.9,29.61,NW,315,0.0,3.0,66,0.00,,SKC,0.11,VWS V14.01,2013-10-19 22:38:00,
2013-10-19 17:43:00,44.0,33.8,29.61,NW,315,1.0,7.0,67,0.00,,SKC,0.11,VWS V14.01,2013-10-19 22:43:00,
2013-10-19 17:48:00,43.6,33.4,29.61,NW,313,0.0,7.0,67,0.00,,SKC,0.11,VWS V14.01,2013-10-19 22:48:00,
2013-10-19 17:53:00,43.4,33.9,29.62,NW,308,0.0,8.0,69,0.00,,SKC,0.11,VWS V14.01,2013-10-19 22:53:00,
2013-10-19 17:58:00,43.2,34.1,29.62,NW,308,0.0,8.0,70,0.00,,SKC,0.11,VWS V14.01,2013-10-19 22:58:00,
2013-10-19 18:00:00,45.9,34.4,29.60,WNW,285,0.0,10.0,64,0.00,,SKC,0.11,VWS V14.01,2013-10-19 23:00:00,
2013-10-19 18:03:00,43.0,34.6,29.62,WNW,302,0.0,1.0,72,0.00,,SKC,0.11,VWS V14.01,2013-10-19 23:03:00,
2013-10-19 18:08:00,42.9,34.2,29.62,WNW,301,0.0,6.0,71,0.00,,SKC,0.11,VWS V14.01,2013-10-19 23:08:00,
2013-10-19 18:13:00,42.8,34.1,29.62,WNW,301,0.0,6.0,71,0.00,,SKC,0.11,VWS V14.01,2013-10-19 23:13:00,
2013-10-19 18:20:00,42.5,33.4,29.62,WNW,301,0.0,6.0,70,0.00,,SKC,0.11,VWS V14.01,2013-10-19 23:20:00,
2013-10-19 18:25:00,42.2,33.5,29.62,WNW,301,0.0,6.0,71,0.00,,SKC,0.11,VWS V14.01,2013-10-19 23:25:00,
2013-10-19 18:30:00,42.0,34.0,29.62,WNW,301,0.0,6.0,73,0.00,,SKC,0.11,VWS V14.01,2013-10-19 23:30:00,
2013-10-19 18:35:00,41.6,33.6,29.63,WNW,301,0.0,0.0,73,0.00,,SKC,0.11,VWS V14.01,2013-10-19 23:35:00,
2013-10-19 18:40:00,41.3,33.7,29.63,WNW,301,0.0,0.0,74,0.00,,SKC,0.11,VWS V14.01,2013-10-19 23:40:00,
2013-10-19 18:45:00,41.1,33.8,29.63,WNW,301,0.0,0.0,75,0.00,,SKC,0.11,VWS V14.01,2013-10-19 23:45:00,
2013-10-19 18:50:00,40.8,33.5,29.63,WNW,301,0.0,0.0,75,0.00,,SKC,0.11,VWS V14.01,2013-10-19 23:50:00,
2013-10-19 18:55:00,40.5,33.5,29.64,WNW,301,0.0,0.0,76,0.00,,SKC,0.11,VWS V14.01,2013-10-19 23:55:00,
2013-10-19 19:00:00,40.2,33.2,29.64,WNW,301,0.0,1.0,76,0.00,,SKC,0.11,VWS V14.01,2013-10-20 00:00:00,
2013-10-19 19:05:00,40.0,33.4,29.64,WNW,301,0.0,0.0,77,0.00,,SKC,0.11,VWS V14.01,2013-10-20 00:05:00,
2013-10-19 19:10:00,39.8,32.9,29.64,WNW,301,0.0,0.0,76,0.00,,SKC,0.11,VWS V14.01,2013-10-20 00:10:00,
2013-10-19 19:15:00,39.6,33.0,29.64,WNW,301,0.0,0.0,77,0.00,,SKC,0.11,VWS V14.01,2013-10-20 00:15:00,
2013-10-19 19:20:00,39.6,34.0,29.64,WNW,301,0.0,5.0,80,0.00,,SKC,0.11,VWS V14.01,2013-10-20 00:20:00,
2013-10-19 19:25:00,39.4,33.4,29.65,WNW,301,0.0,5.0,79,0.00,,SKC,0.11,VWS V14.01,2013-10-20 00:25:00,
2013-10-19 19:30:00,39.2,33.2,29.65,WNW,301,0.0,6.0,79,0.00,,SKC,0.11,VWS V14.01,2013-10-20 00:30:00,
2013-10-19 19:35:00,38.9,33.0,29.65,WNW,301,0.0,4.0,79,0.00,,SKC,0.11,VWS V14.01,2013-10-20 00:35:00,
2013-10-19 19:40:00,38.7,32.8,29.65,WNW,301,0.0,4.0,79,0.00,,SKC,0.11,VWS V14.01,2013-10-20 00:40:00,
2013-10-19 19:45:00,38.5,32.9,29.66,WNW,301,1.0,5.0,80,0.00,,SKC,0.11,VWS V14.01,2013-10-20 00:45:00,
2013-10-19 19:50:00,38.3,33.0,29.66,WNW,301,1.0,5.0,81,0.00,,SKC,0.11,VWS V14.01,2013-10-20 00:50:00,
2013-10-19 19:55:00,38.2,33.2,29.66,WNW,301,0.0,5.0,82,0.00,,SKC,0.11,VWS V14.01,2013-10-20 00:55:00,
2013-10-19 20:00:00,38.1,33.4,29.66,WNW,301,0.0,5.0,83,0.00,,SKC,0.11,VWS V14.01,2013-10-20 01:00:00,
2013-10-19 20:05:00,37.9,33.5,29.66,WNW,301,0.0,5.0,84,0.00,,SKC,0.11,VWS V14.01,2013-10-20 01:05:00,
2013-10-19 20:10:00,37.9,33.8,29.66,WNW,301,0.0,6.0,85,0.00,,SKC,0.11,VWS V14.01,2013-10-20 01:10:00,
2013-10-19 20:15:00,37.8,33.7,29.66,WNW,301,0.0,7.0,85,0.00,,SKC,0.11,VWS V14.01,2013-10-20 01:15:00,
2013-10-19 20:21:00,37.7,33.9,29.66,WNW,301,0.0,7.0,86,0.00,,SKC,0.11,VWS V14.01,2013-10-20 01:21:00,
2013-10-19 20:26:00,37.5,33.7,29.66,WNW,301,0.0,7.0,86,0.00,,SKC,0.11,VWS V14.01,2013-10-20 01:26:00,
2013-10-19 20:30:00,39.1,33.2,29.65,WNW,301,4.0,6.0,79,0.00,,SKC,0.11,VWS V14.01,2013-10-20 01:30:00,
2013-10-19 20:31:00,37.6,34.4,29.67,WNW,301,0.0,7.0,88,0.00,,SKC,0.11,VWS V14.01,2013-10-20 01:31:00,
2013-10-19 20:36:00,37.5,34.6,29.67,WNW,301,0.0,1.0,89,0.00,,SKC,0.11,VWS V14.01,2013-10-20 01:36:00,
2013-10-19 20:41:00,37.4,34.5,29.67,WNW,301,0.0,3.0,89,0.00,,SKC,0.11,VWS V14.01,2013-10-20 01:41:00,
2013-10-19 20:46:00,37.2,34.3,29.67,WNW,301,3.0,5.0,89,0.00,,SKC,0.11,VWS V14.01,2013-10-20 01:46:00,
2013-10-19 20:51:00,37.1,34.2,29.67,WNW,301,1.0,5.0,89,0.00,,SKC,0.11,VWS V14.01,2013-10-20 01:51:00,
2013-10-19 20:56:00,36.9,34.2,29.67,WNW,300,0.0,5.0,90,0.00,,SKC,0.11,VWS V14.01,2013-10-20 01:56:00,
2013-10-19 21:00:00,38.0,33.3,29.66,WNW,301,0.0,5.0,83,0.00,,SKC,0.11,VWS V14.01,2013-10-20 02:00:00,
2013-10-19 21:01:00,36.8,34.2,29.67,WNW,300,0.0,5.0,90,0.00,,SKC,0.11,VWS V14.01,2013-10-20 02:01:00,
2013-10-19 21:06:00,36.8,34.4,29.67,WNW,300,0.0,0.0,91,0.00,,SKC,0.11,VWS V14.01,2013-10-20 02:06:00,
2013-10-19 21:11:00,36.8,34.4,29.67,WNW,300,0.0,0.0,91,0.00,,SKC,0.11,VWS V14.01,2013-10-20 02:11:00,
2013-10-19 21:16:00,36.6,34.2,29.67,WNW,300,0.0,0.0,91,0.00,,SKC,0.11,VWS V14.01,2013-10-20 02:16:00,
2013-10-19 21:21:00,36.5,34.1,29.68,WNW,300,0.0,0.0,91,0.00,,SKC,0.11,VWS V14.01,2013-10-20 02:21:00,
2013-10-19 21:26:00,36.4,34.0,29.68,WNW,300,0.0,4.0,91,0.00,,SKC,0.11,VWS V14.01,2013-10-20 02:26:00,
2013-10-19 21:30:00,37.6,34.4,29.67,WNW,301,0.0,7.0,88,0.00,,SKC,0.11,VWS V14.01,2013-10-20 02:30:00,
2013-10-19 21:31:00,36.2,33.8,29.68,WNW,300,0.0,0.0,91,0.00,,SKC,0.11,VWS V14.01,2013-10-20 02:31:00,
2013-10-19 21:36:00,36.1,33.7,29.68,WNW,300,0.0,2.0,91,0.00,,SKC,0.11,VWS V14.01,2013-10-20 02:36:00,
2013-10-19 21:41:00,36.2,34.1,29.68,WNW,300,0.0,2.0,92,0.00,,SKC,0.11,VWS V14.01,2013-10-20 02:41:00,
2013-10-19 21:46:00,36.0,33.9,29.68,WNW,300,0.0,2.0,92,0.00,,SKC,0.11,VWS V14.01,2013-10-20 02:46:00,
2013-10-19 21:51:00,35.8,33.7,29.68,WNW,300,0.0,2.0,92,0.00,,SKC,0.11,VWS V14.01,2013-10-20 02:51:00,
2013-10-19 21:56:00,35.6,33.5,29.68,WNW,300,0.0,2.0,92,0.00,,SKC,0.11,VWS V14.01,2013-10-20 02:56:00,
2013-10-19 22:00:00,36.8,34.2,29.67,WNW,300,0.0,5.0,90,0.00,,SKC,0.11,VWS V14.01,2013-10-20 03:00:00,
2013-10-19 22:01:00,35.5,33.4,29.68,WNW,300,0.0,0.0,92,0.00,,SKC,0.11,VWS V14.01,2013-10-20 03:01:00,
2013-10-19 22:06:00,35.4,33.3,29.68,WNW,300,0.0,0.0,92,0.00,,SKC,0.11,VWS V14.01,2013-10-20 03:06:00,
2013-10-19 22:12:00,35.5,33.4,29.68,WNW,300,0.0,1.0,92,0.00,,SKC,0.11,VWS V14.01,2013-10-20 03:12:00,
2013-10-19 22:17:00,35.4,33.6,29.68,WNW,300,0.0,5.0,93,0.00,,SKC,0.11,VWS V14.01,2013-10-20 03:17:00,
2013-10-19 22:22:00,35.2,33.4,29.68,WNW,300,0.0,5.0,93,0.00,,SKC,0.11,VWS V14.01,2013-10-20 03:22:00,
2013-10-19 22:27:00,35.0,33.2,29.68,WNW,300,0.0,5.0,93,0.00,,SKC,0.11,VWS V14.01,2013-10-20 03:27:00,
2013-10-19 22:30:00,36.3,33.9,29.68,WNW,300,0.0,4.0,91,0.00,,SKC,0.11,VWS V14.01,2013-10-20 03:30:00,
2013-10-19 22:32:00,34.8,33.0,29.68,WNW,300,0.0,0.0,93,0.00,,SKC,0.11,VWS V14.01,2013-10-20 03:32:00,
2013-10-19 22:37:00,34.7,32.9,29.68,WNW,300,0.0,0.0,93,0.00,,SKC,0.11,VWS V14.01,2013-10-20 03:37:00,
2013-10-19 22:42:00,34.5,32.7,29.68,WNW,300,0.0,0.0,93,0.00,,SKC,0.11,VWS V14.01,2013-10-20 03:42:00,
2013-10-19 22:47:00,34.6,32.8,29.68,WNW,300,0.0,2.0,93,0.00,,SKC,0.11,VWS V14.01,2013-10-20 03:47:00,
2013-10-19 22:52:00,34.6,32.8,29.68,WNW,300,0.0,2.0,93,0.00,,SKC,0.11,VWS V14.01,2013-10-20 03:52:00,
2013-10-19 22:57:00,34.4,32.6,29.69,WNW,300,0.0,4.0,93,0.00,,SKC,0.11,VWS V14.01,2013-10-20 03:57:00,
2013-10-19 23:00:00,35.5,33.4,29.68,WNW,300,0.0,5.0,92,0.00,,SKC,0.11,VWS V14.01,2013-10-20 04:00:00,
2013-10-19 23:01:00,34.4,32.6,29.69,WNW,300,0.0,0.0,93,0.00,,SKC,0.11,VWS V14.01,2013-10-20 04:01:00,
2013-10-19 23:02:00,34.4,32.6,29.69,WNW,300,0.0,0.0,93,0.00,,SKC,0.11,VWS V14.01,2013-10-20 04:02:00,
2013-10-19 23:03:00,34.4,32.6,29.69,WNW,300,0.0,0.0,93,0.00,,SKC,0.11,VWS V14.01,2013-10-20 04:03:00,
2013-10-19 23:04:00,34.4,32.6,29.69,WNW,300,0.0,0.0,93,0.00,,SKC,0.11,VWS V14.01,2013-10-20 04:04:00,
2013-10-19 23:09:00,34.3,32.5,29.69,WNW,300,0.0,1.0,93,0.00,,SKC,0.11,VWS V14.01,2013-10-20 04:09:00,
2013-10-19 23:11:00,34.2,32.7,29.69,WNW,300,0.0,1.0,94,0.00,,SKC,0.11,VWS V14.01,2013-10-20 04:11:00,
2013-10-19 23:16:00,34.2,32.4,29.68,WNW,300,0.0,6.0,93,0.00,,SKC,0.11,VWS V14.01,2013-10-20 04:16:00,
2013-10-19 23:21:00,34.1,32.3,29.68,WNW,300,0.0,6.0,93,0.00,,SKC,0.11,VWS V14.01,2013-10-20 04:21:00,
2013-10-19 23:26:00,34.0,32.5,29.68,WNW,300,0.0,6.0,94,0.00,,SKC,0.11,VWS V14.01,2013-10-20 04:26:00,
2013-10-19 23:30:00,34.8,33.0,29.68,WNW,300,0.0,5.0,93,0.00,,SKC,0.11,VWS V14.01,2013-10-20 04:30:00,
2013-10-19 23:31:00,33.9,32.4,29.68,WNW,300,0.0,0.0,94,0.00,,SKC,0.11,VWS V14.01,2013-10-20 04:31:00,
2013-10-19 23:36:00,33.8,32.3,29.68,WNW,300,0.0,0.0,94,0.00,,SKC,0.11,VWS V14.01,2013-10-20 04:36:00,
2013-10-19 23:41:00,33.8,32.3,29.68,WNW,300,0.0,5.0,94,0.00,,SKC,0.11,VWS V14.01,2013-10-20 04:41:00,
2013-10-19 23:46:00,33.8,32.3,29.68,WNW,300,0.0,5.0,94,0.00,,SKC,0.11,VWS V14.01,2013-10-20 04:46:00,
2013-10-19 23:52:00,33.7,32.2,29.68,WNW,300,0.0,5.0,94,0.00,,SKC,0.11,VWS V14.01,2013-10-20 04:52:00,
2013-10-19 23:57:00,33.8,32.3,29.68,WNW,300,0.0,5.0,94,0.00,,SKC,0.11,VWS V14.01,2013-10-20 04:57:00,